Time;durP1;ratioP1;P1;durP2;ratioP2;P2;SDS_P1;SDS_P2;PMS_P1;PMS_P2;Temp;Humidity;BMP_temperature;BMP_pressure;BME280_temperature;BME280_humidity;BME280_pressure;Samples;Min_cycle;Max_cycle;Signal;HPM_P1;HPM_P2
2024/04/08 00:01:04;;;;;;;6.35;4.07;;;11.30;95.10;;;;;;5416622;26;20348;-81
2024/04/08 00:03:29;;;;;;;7.10;3.88;;;11.30;95.10;;;;;;5417324;26;20014;-82
2024/04/08 00:05:56;;;;;;;6.13;3.58;;;11.30;95.10;;;;;;5385323;26;20440;-84
2024/04/08 00:08:22;;;;;;;5.35;3.83;;;11.20;95.10;;;;;;5418047;26;20003;-82
2024/04/08 00:10:48;;;;;;;5.80;4.35;;;11.20;95.20;;;;;;5416627;26;20118;-82
2024/04/08 00:13:13;;;;;;;5.47;3.90;;;11.20;95.20;;;;;;5417364;26;20004;-83
2024/04/08 00:15:39;;;;;;;6.05;4.35;;;11.20;95.20;;;;;;5418310;26;20076;-82
2024/04/08 00:18:05;;;;;;;6.25;4.07;;;11.20;95.20;;;;;;5417276;26;20000;-82
2024/04/08 00:20:31;;;;;;;4.47;4.03;;;11.20;95.10;;;;;;5418496;26;20003;-82
2024/04/08 00:22:56;;;;;;;6.97;3.33;;;11.20;95.10;;;;;;5418276;26;20011;-82
2024/04/08 00:25:22;;;;;;;4.55;3.70;;;11.20;95.10;;;;;;5418235;26;20000;-81
2024/04/08 00:27:48;;;;;;;9.45;3.70;;;11.20;95.10;;;;;;5419467;26;20018;-81
2024/04/08 00:30:14;;;;;;;5.60;3.95;;;11.20;95.10;;;;;;5418481;26;20015;-82
2024/04/08 00:32:40;;;;;;;8.30;4.00;;;11.30;95.10;;;;;;5417305;26;20340;-82
2024/04/08 00:35:06;;;;;;;3.75;3.33;;;11.20;95.00;;;;;;5417954;26;20059;-82
2024/04/08 00:37:31;;;;;;;4.75;3.28;;;11.30;94.90;;;;;;5416584;26;20468;-82
2024/04/08 00:39:57;;;;;;;5.65;3.20;;;11.20;94.90;;;;;;5416140;26;20077;-82
2024/04/08 00:42:23;;;;;;;9.80;4.38;;;11.20;94.90;;;;;;5416565;26;20012;-82
2024/04/08 00:44:49;;;;;;;3.83;2.88;;;11.20;94.90;;;;;;5427779;26;20014;-81
2024/04/08 00:47:15;;;;;;;6.15;3.50;;;11.20;94.90;;;;;;5390438;26;20013;-83
2024/04/08 00:49:42;;;;;;;5.80;3.17;;;11.20;94.90;;;;;;5416313;26;19995;-82
2024/04/08 00:52:15;;;;;;;3.88;3.40;;;11.20;94.90;;;;;;5416422;26;20080;-81
2024/04/08 00:54:41;;;;;;;5.00;3.33;;;11.20;95.00;;;;;;5416193;26;20088;-82
2024/04/08 00:57:09;;;;;;;4.07;3.53;;;11.20;95.00;;;;;;5415723;26;20004;-82
2024/04/08 00:59:35;;;;;;;3.90;3.42;;;11.10;95.10;;;;;;5416028;26;20003;-81
2024/04/08 01:02:02;;;;;;;4.00;2.80;;;11.10;95.10;;;;;;5415920;26;20013;-81
2024/04/08 01:04:34;;;;;;;4.88;3.28;;;11.10;95.10;;;;;;5415743;26;20019;-82
2024/04/08 01:07:00;;;;;;;3.85;2.83;;;11.10;95.20;;;;;;5416048;26;20459;-81
2024/04/08 01:09:30;;;;;;;8.25;3.47;;;11.10;95.20;;;;;;5416537;26;20011;-80
2024/04/08 01:11:59;;;;;;;6.32;3.20;;;11.00;95.20;;;;;;5418083;26;20000;-81
2024/04/08 01:14:25;;;;;;;4.38;3.03;;;11.10;95.30;;;;;;5415598;26;20414;-83
2024/04/08 01:16:51;;;;;;;5.22;3.17;;;11.00;95.20;;;;;;5415876;26;20003;-82
2024/04/08 01:19:22;;;;;;;4.22;2.80;;;11.00;95.30;;;;;;5415623;26;20011;-81
2024/04/08 01:21:49;;;;;;;4.90;3.00;;;11.00;95.30;;;;;;5396922;26;20015;-81
2024/04/08 01:24:15;;;;;;;6.30;2.97;;;11.00;95.30;;;;;;5415534;26;20000;-80
2024/04/08 01:26:40;;;;;;;5.40;2.80;;;11.00;95.30;;;;;;5384363;26;20071;-81
2024/04/08 01:29:07;;;;;;;3.80;2.92;;;11.00;95.30;;;;;;5415893;26;19999;-81
2024/04/08 01:31:33;;;;;;;7.18;3.53;;;11.00;95.30;;;;;;5381312;26;20000;-82
2024/04/08 01:33:59;;;;;;;4.18;3.38;;;11.00;95.40;;;;;;5415667;26;20335;-81
2024/04/08 01:36:25;;;;;;;3.58;2.58;;;10.90;95.40;;;;;;5414971;26;20003;-80
2024/04/08 01:38:51;;;;;;;5.20;2.75;;;10.90;95.50;;;;;;5415766;26;20016;-81
2024/04/08 01:41:17;;;;;;;5.90;3.30;;;10.80;95.50;;;;;;5384119;26;20000;-81
2024/04/08 01:43:43;;;;;;;5.90;3.15;;;10.90;95.60;;;;;;5419679;26;20010;-81
2024/04/08 01:46:10;;;;;;;6.85;3.22;;;10.80;95.70;;;;;;5384296;26;19999;-80
2024/04/08 01:48:35;;;;;;;4.82;3.22;;;10.80;95.70;;;;;;5415829;26;20084;-80
2024/04/08 01:51:01;;;;;;;5.07;3.28;;;10.90;95.70;;;;;;5415516;26;20008;-80
2024/04/08 01:53:27;;;;;;;6.45;3.63;;;10.80;95.80;;;;;;5415052;26;20035;-81
2024/04/08 01:55:53;;;;;;;5.97;3.72;;;10.80;95.80;;;;;;5383609;26;20011;-81
2024/04/08 01:58:18;;;;;;;4.45;3.33;;;10.80;95.80;;;;;;5415320;26;20133;-82
2024/04/08 02:00:44;;;;;;;6.43;3.72;;;10.80;95.90;;;;;;5395457;26;20126;-82
2024/04/08 02:03:10;;;;;;;6.93;3.35;;;10.80;95.90;;;;;;5423906;26;20340;-81
2024/04/08 02:05:36;;;;;;;6.40;4.20;;;10.80;95.90;;;;;;5418827;26;20027;-80
2024/04/08 02:08:01;;;;;;;5.00;3.42;;;10.70;95.90;;;;;;5418746;26;20015;-81
2024/04/08 02:10:27;;;;;;;5.97;4.05;;;10.70;95.90;;;;;;5418638;26;20376;-80
2024/04/08 02:12:53;;;;;;;5.28;3.20;;;10.70;95.90;;;;;;5391220;26;20393;-81
2024/04/08 02:15:19;;;;;;;4.78;3.75;;;10.80;95.90;;;;;;5418589;26;20040;-81
2024/04/08 02:17:44;;;;;;;5.32;4.13;;;10.70;95.90;;;;;;5418526;26;20084;-80
2024/04/08 02:20:10;;;;;;;5.80;3.78;;;10.70;95.90;;;;;;5419234;26;20003;-82
2024/04/08 02:22:36;;;;;;;5.57;3.65;;;10.70;96.00;;;;;;5418451;26;20004;-81
2024/04/08 02:25:02;;;;;;;6.88;4.90;;;10.70;96.00;;;;;;5418877;26;20417;-82
2024/04/08 02:27:28;;;;;;;5.47;4.28;;;10.70;96.00;;;;;;5421778;26;20000;-80
2024/04/08 02:29:54;;;;;;;7.43;4.63;;;10.70;96.00;;;;;;5432564;26;20459;-81
2024/04/08 02:32:20;;;;;;;6.20;4.78;;;10.70;96.10;;;;;;5418132;26;20015;-82
2024/04/08 02:34:46;;;;;;;8.07;4.80;;;10.70;96.10;;;;;;5415811;26;20432;-81
2024/04/08 02:37:12;;;;;;;8.20;5.00;;;10.70;96.10;;;;;;5417973;26;20003;-81
2024/04/08 02:39:38;;;;;;;6.57;5.32;;;10.70;96.10;;;;;;5417795;26;20072;-82
2024/04/08 02:42:06;;;;;;;8.00;5.40;;;10.70;96.20;;;;;;5417148;26;20437;-82
2024/04/08 02:44:33;;;;;;;7.25;5.72;;;10.60;96.20;;;;;;5417672;26;20018;-82
2024/04/08 02:46:59;;;;;;;8.40;5.57;;;10.60;96.30;;;;;;5385654;26;20014;-82
2024/04/08 02:49:25;;;;;;;9.38;6.25;;;10.60;96.30;;;;;;5386101;26;20004;-81
2024/04/08 02:51:51;;;;;;;6.57;5.90;;;10.60;96.40;;;;;;5386761;26;20010;-81
2024/04/08 02:54:17;;;;;;;8.63;6.07;;;10.60;96.40;;;;;;5419413;26;20007;-82
2024/04/08 02:56:43;;;;;;;7.30;5.60;;;10.70;96.40;;;;;;5418540;26;20016;-81
2024/04/08 02:59:09;;;;;;;7.45;5.75;;;10.60;96.40;;;;;;5418314;26;20008;-82
2024/04/08 03:01:35;;;;;;;12.70;6.70;;;10.60;96.40;;;;;;5419022;26;20011;-79
2024/04/08 03:04:02;;;;;;;7.20;5.05;;;10.70;96.40;;;;;;5417922;26;20225;-81
2024/04/08 03:06:29;;;;;;;8.60;5.57;;;10.70;96.50;;;;;;5386307;26;19999;-80
2024/04/08 03:08:55;;;;;;;7.72;5.22;;;10.70;96.40;;;;;;5401219;26;20373;-81
2024/04/08 03:11:21;;;;;;;9.00;5.85;;;10.70;96.40;;;;;;5416837;26;20011;-81
2024/04/08 03:13:48;;;;;;;8.60;6.05;;;10.70;96.40;;;;;;5417339;26;20073;-82
2024/04/08 03:16:14;;;;;;;10.43;5.10;;;10.70;96.40;;;;;;5423629;26;20056;-82
2024/04/08 03:18:39;;;;;;;9.68;5.38;;;10.80;96.40;;;;;;5424290;26;20451;-82
2024/04/08 03:21:05;;;;;;;7.55;5.68;;;10.80;96.30;;;;;;5385897;26;19999;-82
2024/04/08 03:23:31;;;;;;;9.57;6.00;;;10.80;96.30;;;;;;5417509;26;20348;-81
2024/04/08 03:25:58;;;;;;;8.80;5.72;;;10.80;96.30;;;;;;5417678;26;19999;-82
2024/04/08 03:28:24;;;;;;;9.90;6.87;;;10.90;96.30;;;;;;5416847;26;20073;-81
2024/04/08 03:30:50;;;;;;;8.98;6.05;;;10.90;96.20;;;;;;5417095;26;20000;-81
2024/04/08 03:33:19;;;;;;;9.25;6.75;;;10.90;96.20;;;;;;5418141;26;20341;-81
2024/04/08 03:35:45;;;;;;;11.73;6.00;;;10.90;96.20;;;;;;5417126;26;20347;-82
2024/04/08 03:38:11;;;;;;;9.93;5.85;;;10.90;96.20;;;;;;5417422;26;20037;-81
2024/04/08 03:40:37;;;;;;;7.68;5.32;;;10.90;96.30;;;;;;5417118;26;20018;-81
2024/04/08 03:43:05;;;;;;;7.22;5.47;;;10.90;96.30;;;;;;5416832;26;20007;-82
2024/04/08 03:45:31;;;;;;;9.85;4.70;;;10.90;96.30;;;;;;5417041;26;20336;-81
2024/04/08 03:48:00;;;;;;;6.43;5.30;;;10.90;96.30;;;;;;5385816;26;20011;-81
2024/04/08 03:50:35;;;;;;;10.60;5.25;;;10.90;96.40;;;;;;5417858;26;20541;-81
2024/04/08 03:53:01;;;;;;;7.28;4.65;;;11.00;96.40;;;;;;5386271;26;20054;-82
2024/04/08 03:55:28;;;;;;;5.22;4.25;;;11.10;96.30;;;;;;5417222;26;20000;-82
2024/04/08 03:57:54;;;;;;;5.75;4.82;;;11.10;96.30;;;;;;5416825;26;19995;-81
2024/04/08 04:00:20;;;;;;;7.78;5.20;;;11.10;96.20;;;;;;5417266;26;20012;-82
2024/04/08 04:02:46;;;;;;;7.35;4.82;;;11.10;96.10;;;;;;5417159;26;20023;-81
2024/04/08 04:05:13;;;;;;;8.20;5.07;;;11.10;96.10;;;;;;5385070;26;20367;-82
2024/04/08 04:07:38;;;;;;;7.13;5.20;;;11.20;96.10;;;;;;5416922;26;20015;-82
2024/04/08 04:10:06;;;;;;;7.47;4.78;;;11.20;96.00;;;;;;5416670;26;20000;-82
2024/04/08 04:12:39;;;;;;;6.20;4.40;;;11.20;96.00;;;;;;5416803;26;20014;-81
2024/04/08 04:15:06;;;;;;;7.53;5.25;;;11.20;96.00;;;;;;5416746;26;20014;-82
2024/04/08 04:17:32;;;;;;;7.63;5.43;;;11.20;95.90;;;;;;5417046;26;20495;-81
2024/04/08 04:19:58;;;;;;;5.90;5.00;;;11.30;95.90;;;;;;5425167;26;20007;-81
2024/04/08 04:22:24;;;;;;;7.57;4.97;;;11.20;95.80;;;;;;5415385;26;20520;-81
2024/04/08 04:24:50;;;;;;;7.60;5.32;;;11.30;95.80;;;;;;5355820;26;20007;-81
2024/04/08 04:27:22;;;;;;;6.82;4.53;;;11.30;95.80;;;;;;5416270;26;20013;-82
2024/04/08 04:29:48;;;;;;;8.80;4.82;;;11.30;95.70;;;;;;5384875;26;20003;-82
2024/04/08 04:32:14;;;;;;;10.63;4.65;;;11.30;95.70;;;;;;5391208;26;20014;-85
2024/04/08 04:34:40;;;;;;;7.13;4.90;;;11.30;95.70;;;;;;5424598;26;20011;-83
2024/04/08 04:37:05;;;;;;;5.63;4.28;;;11.40;95.70;;;;;;5415829;26;20052;-84
2024/04/08 04:39:32;;;;;;;6.63;4.93;;;11.40;95.60;;;;;;5416490;26;20003;-83
2024/04/08 04:41:58;;;;;;;5.75;4.78;;;11.60;95.70;;;;;;5384219;26;20000;-83
2024/04/08 04:44:24;;;;;;;6.20;4.32;;;11.60;95.40;;;;;;5416875;26;20003;-82
2024/04/08 04:46:50;;;;;;;6.20;4.95;;;11.60;95.40;;;;;;5384455;26;20192;-83
2024/04/08 04:49:17;;;;;;;7.85;4.80;;;11.60;95.40;;;;;;5419615;26;20093;-83
2024/04/08 04:51:43;;;;;;;8.63;5.28;;;11.70;95.40;;;;;;5418517;26;20000;-80
2024/04/08 04:54:09;;;;;;;7.78;5.15;;;11.70;95.20;;;;;;5415602;26;20030;-82
2024/04/08 04:56:35;;;;;;;5.30;4.40;;;11.70;95.10;;;;;;5416747;26;20329;-81
2024/04/08 04:59:01;;;;;;;10.23;5.13;;;11.70;95.20;;;;;;5416334;26;20097;-81
2024/04/08 05:01:27;;;;;;;5.82;4.57;;;11.70;95.20;;;;;;5416566;26;20003;-82
2024/04/08 05:03:53;;;;;;;10.10;4.30;;;11.70;95.30;;;;;;5416698;26;20000;-83
2024/04/08 05:06:18;;;;;;;10.07;4.75;;;11.60;95.20;;;;;;5416017;26;20014;-82
2024/04/08 05:08:46;;;;;;;7.93;4.75;;;11.60;95.50;;;;;;5384371;26;20000;-80
2024/04/08 05:11:12;;;;;;;6.88;5.57;;;11.70;95.50;;;;;;5391991;26;20014;-81
2024/04/08 05:13:38;;;;;;;8.40;4.82;;;11.70;95.50;;;;;;5415421;26;20004;-83
2024/04/08 05:16:05;;;;;;;9.80;5.40;;;11.80;95.40;;;;;;5415449;26;20003;-84
2024/04/08 05:18:32;;;;;;;6.25;4.55;;;11.80;95.40;;;;;;5416176;26;19999;-85
2024/04/08 05:20:59;;;;;;;8.50;5.20;;;11.90;95.40;;;;;;5417183;26;20325;-84
2024/04/08 05:23:26;;;;;;;7.30;4.60;;;11.90;95.40;;;;;;5417019;26;20012;-84
2024/04/08 05:25:53;;;;;;;6.55;4.00;;;12.00;95.30;;;;;;5416636;26;20004;-84
2024/04/08 05:28:20;;;;;;;11.48;5.05;;;11.80;95.20;;;;;;5416569;26;20003;-85
2024/04/08 05:30:46;;;;;;;10.43;5.15;;;11.90;95.40;;;;;;5385767;26;20028;-82
2024/04/08 05:33:12;;;;;;;7.03;4.88;;;11.90;95.40;;;;;;5416425;26;20529;-83
2024/04/08 05:35:44;;;;;;;8.48;5.25;;;12.00;95.40;;;;;;5419999;26;20443;-82
2024/04/08 05:38:10;;;;;;;6.80;4.47;;;12.00;95.20;;;;;;5420379;26;20015;-83
2024/04/08 05:40:37;;;;;;;9.67;5.03;;;12.10;95.10;;;;;;5393058;26;20012;-83
2024/04/08 05:43:04;;;;;;;8.85;5.05;;;12.10;95.20;;;;;;5432240;26;20306;-83
2024/04/08 05:45:30;;;;;;;9.18;5.22;;;12.10;95.00;;;;;;5434660;26;20328;-83
2024/04/08 05:47:56;;;;;;;7.85;5.18;;;12.20;95.00;;;;;;5429429;26;20452;-82
2024/04/08 05:50:23;;;;;;;10.05;5.20;;;12.40;95.00;;;;;;5420694;26;20439;-82
2024/04/08 05:52:50;;;;;;;9.52;5.00;;;12.50;94.60;;;;;;5392080;26;20000;-81
2024/04/08 05:55:16;;;;;;;7.93;5.83;;;12.60;94.40;;;;;;5402812;26;20526;-82
2024/04/08 05:57:42;;;;;;;8.38;5.50;;;12.80;94.40;;;;;;5419053;26;20547;-83
2024/04/08 06:00:11;;;;;;;8.90;6.20;;;13.20;94.00;;;;;;5385780;26;20000;-83
2024/04/08 06:02:38;;;;;;;8.30;5.88;;;14.10;93.40;;;;;;5419274;26;20030;-83
2024/04/08 06:05:05;;;;;;;6.65;4.80;;;15.10;91.40;;;;;;5414702;26;20003;-84
2024/04/08 06:07:30;;;;;;;7.97;4.88;;;15.80;90.10;;;;;;5380695;26;20019;-84
2024/04/08 06:09:56;;;;;;;7.32;5.80;;;16.70;88.50;;;;;;5413123;26;20014;-85
2024/04/08 06:12:22;;;;;;;9.95;4.93;;;17.00;84.30;;;;;;5424796;26;20018;-85
2024/04/08 06:14:49;;;;;;;11.63;5.10;;;16.30;84.00;;;;;;5419030;26;20032;-87
2024/04/08 06:17:15;;;;;;;7.32;5.38;;;15.70;85.80;;;;;;5411724;26;20000;-84
2024/04/08 06:19:41;;;;;;;7.63;4.70;;;15.20;87.50;;;;;;5381371;26;20015;-85
2024/04/08 06:22:07;;;;;;;9.68;5.43;;;15.30;88.40;;;;;;5420134;26;20004;-85
2024/04/08 06:24:33;;;;;;;16.10;5.85;;;16.10;87.40;;;;;;5384208;26;20056;-85
2024/04/08 06:26:59;;;;;;;9.27;5.33;;;16.90;84.90;;;;;;5419842;26;20414;-82
2024/04/08 06:29:25;;;;;;;8.50;5.10;;;17.30;82.60;;;;;;5414109;26;19997;-85
2024/04/08 06:31:51;;;;;;;8.43;5.53;;;18.10;81.20;;;;;;5419197;26;20789;-86
2024/04/08 06:34:17;;;;;;;14.38;5.82;;;18.80;78.10;;;;;;5390084;26;20006;-85
2024/04/08 06:36:46;;;;;;;10.80;5.05;;;19.70;76.20;;;;;;5424108;26;20018;-85
2024/04/08 06:39:15;;;;;;;13.50;4.55;;;20.10;73.70;;;;;;5390005;26;20004;-84
2024/04/08 06:41:41;;;;;;;8.23;4.60;;;21.10;71.80;;;;;;5390514;26;20003;-84
2024/04/08 06:44:07;;;;;;;6.68;4.55;;;21.70;68.10;;;;;;5421509;26;20000;-84
2024/04/08 06:46:33;;;;;;;8.13;4.93;;;21.30;67.90;;;;;;5419492;26;20015;-86
2024/04/08 06:49:01;;;;;;;11.85;5.38;;;21.40;67.50;;;;;;5418635;26;20004;-83
2024/04/08 06:51:27;;;;;;;9.88;5.20;;;22.30;72.90;;;;;;5425745;26;20011;-86
2024/04/08 06:53:53;;;;;;;10.98;4.78;;;22.60;64.00;;;;;;5422793;26;20000;-86
2024/04/08 06:56:19;;;;;;;10.32;4.72;;;23.50;62.20;;;;;;5422491;26;20010;-86
2024/04/08 06:58:47;;;;;;;8.13;5.15;;;24.40;60.00;;;;;;5428347;26;20003;-84
2024/04/08 07:01:13;;;;;;;7.65;5.07;;;24.40;58.50;;;;;;5395146;26;19999;-85
2024/04/08 07:03:39;;;;;;;8.63;7.17;;;25.00;57.70;;;;;;5430781;26;20114;-88
2024/04/08 07:06:08;;;;;;;7.32;5.10;;;24.70;56.90;;;;;;5446709;26;20002;-88
2024/04/08 07:08:35;;;;;;;13.18;4.72;;;24.30;56.80;;;;;;5397231;26;20011;-87
2024/04/08 07:11:02;;;;;;;13.00;4.60;;;24.40;57.30;;;;;;5378428;26;20464;-88
2024/04/08 07:13:29;;;;;;;12.95;4.95;;;25.10;55.80;;;;;;5418397;26;20039;-82
2024/04/08 07:15:58;;;;;;;12.82;5.03;;;25.00;55.30;;;;;;5417242;26;20007;-84
2024/04/08 07:18:27;;;;;;;21.98;6.20;;;24.80;54.70;;;;;;5416864;26;20463;-84
2024/04/08 07:20:53;;;;;;;13.63;5.28;;;23.90;55.80;;;;;;5417700;26;20003;-84
2024/04/08 07:23:18;;;;;;;11.40;4.78;;;24.00;56.60;;;;;;5416854;26;20351;-82
2024/04/08 07:25:44;;;;;;;13.07;5.32;;;23.80;56.40;;;;;;5418001;26;20018;-84
2024/04/08 07:28:11;;;;;;;11.73;5.75;;;23.30;57.20;;;;;;5417492;26;20014;-86
2024/04/08 07:30:38;;;;;;;15.70;5.10;;;23.30;57.70;;;;;;5419258;26;20081;-85
2024/04/08 07:33:04;;;;;;;;;;;22.70;58.30;;;;;;5421614;26;20003;-87
2024/04/08 07:35:31;;;;;;;17.37;6.00;;;22.40;59.40;;;;;;5421890;26;19933;-90
2024/04/08 07:37:57;;;;;;;16.52;6.28;;;22.20;59.70;;;;;;5414075;26;20000;-89
2024/04/08 07:40:22;;;;;;;16.58;6.18;;;22.20;59.90;;;;;;5419817;26;20037;-84
2024/04/08 07:42:48;;;;;;;6.47;4.25;;;22.40;60.20;;;;;;5424100;26;20000;-83
2024/04/08 07:45:14;;;;;;;11.43;5.32;;;22.80;59.20;;;;;;5383710;26;20022;-86
2024/04/08 07:47:40;;;;;;;8.30;4.75;;;22.70;58.80;;;;;;5417981;26;20003;-84
2024/04/08 07:50:07;;;;;;;19.27;6.20;;;21.90;59.90;;;;;;5419251;26;20023;-87
2024/04/08 07:52:37;;;;;;;;;;;21.40;61.30;;;;;;5392996;26;20415;-90
2024/04/08 07:55:09;;;;;;;9.38;4.63;;;21.10;61.90;;;;;;5406492;26;19933;-87
2024/04/08 07:57:35;;;;;;;7.93;4.93;;;20.90;63.30;;;;;;5375498;26;20028;-88
2024/04/08 08:00:04;;;;;;;10.77;5.43;;;21.30;62.70;;;;;;5392585;26;19995;-88
2024/04/08 08:02:30;;;;;;;10.02;5.82;;;21.10;62.50;;;;;;5385489;26;19996;-86
2024/04/08 08:04:56;;;;;;;7.68;5.15;;;20.90;63.10;;;;;;5395320;26;20144;-86
2024/04/08 08:07:22;;;;;;;8.50;5.40;;;20.70;63.10;;;;;;5414404;26;20015;-85
2024/04/08 08:09:48;;;;;;;10.27;5.18;;;20.30;64.30;;;;;;5422413;26;19999;-83
2024/04/08 08:12:13;;;;;;;10.75;5.05;;;20.10;65.10;;;;;;5386594;26;20017;-86
2024/04/08 08:14:39;;;;;;;8.88;4.97;;;20.30;65.90;;;;;;5422806;26;20010;-87
2024/04/08 08:17:05;;;;;;;10.95;5.72;;;21.00;64.50;;;;;;5422265;26;20011;-88
2024/04/08 08:19:31;;;;;;;10.80;4.40;;;21.60;63.20;;;;;;5393594;26;20008;-87
2024/04/08 08:21:57;;;;;;;9.55;5.18;;;22.10;62.40;;;;;;5388885;26;19996;-86
2024/04/08 08:24:22;;;;;;;10.95;5.25;;;22.80;60.80;;;;;;5417537;26;20448;-85
2024/04/08 08:26:48;;;;;;;15.70;5.78;;;23.20;59.40;;;;;;5416988;26;20019;-85
2024/04/08 08:29:14;;;;;;;11.88;5.65;;;23.20;59.00;;;;;;5416580;26;20007;-87
2024/04/08 08:31:40;;;;;;;8.80;4.82;;;23.00;58.80;;;;;;5416391;26;20018;-83
2024/04/08 08:34:08;;;;;;;9.73;4.50;;;22.60;59.70;;;;;;5399494;26;20010;-88
2024/04/08 08:36:34;;;;;;;11.32;5.07;;;22.40;59.90;;;;;;5398929;26;20004;-88
2024/04/08 08:39:00;;;;;;;9.82;5.28;;;21.60;61.30;;;;;;5416391;26;20014;-84
2024/04/08 08:41:30;;;;;;;9.80;4.50;;;21.30;62.80;;;;;;5416557;26;19999;-85
2024/04/08 08:44:01;;;;;;;8.27;4.97;;;21.00;63.30;;;;;;5416076;26;20011;-88
2024/04/08 08:46:28;;;;;;;10.73;5.53;;;20.70;64.10;;;;;;5416782;26;20000;-87
2024/04/08 08:48:59;;;;;;;14.15;5.05;;;20.70;64.70;;;;;;5408357;26;20085;-88
2024/04/08 08:51:26;;;;;;;9.85;4.93;;;20.90;64.40;;;;;;5390044;26;20080;-89
2024/04/08 08:53:52;;;;;;;;;;;20.40;65.10;;;;;;5452561;26;20015;-87
2024/04/08 08:56:19;;;;;;;9.80;4.53;;;19.90;66.10;;;;;;5416837;26;19949;-87
2024/04/08 08:58:54;;;;;;;18.15;8.77;;;19.90;67.10;;;;;;5417060;26;19987;-86
2024/04/08 09:01:20;;;;;;;20.58;7.80;;;20.10;66.70;;;;;;5426009;26;19999;-84
2024/04/08 09:03:47;;;;;;;16.30;8.23;;;20.00;66.80;;;;;;5382269;26;20008;-83
2024/04/08 09:06:15;;;;;;;11.02;5.28;;;20.20;66.90;;;;;;5410595;26;20000;-84
2024/04/08 09:08:41;;;;;;;7.72;4.80;;;20.60;66.30;;;;;;5383433;26;20015;-83
2024/04/08 09:11:08;;;;;;;8.50;5.22;;;21.00;65.90;;;;;;5415279;26;20344;-83
2024/04/08 09:13:34;;;;;;;8.93;4.93;;;21.60;64.30;;;;;;5363347;26;20004;-84
2024/04/08 09:15:59;;;;;;;14.98;4.68;;;21.70;63.60;;;;;;5406013;26;19999;-85
2024/04/08 09:18:26;;;;;;;8.30;4.10;;;21.80;63.10;;;;;;5433843;26;20770;-86
2024/04/08 09:20:52;;;;;;;9.65;4.88;;;21.70;63.10;;;;;;5415978;26;20004;-87
2024/04/08 09:23:18;;;;;;;21.73;8.27;;;21.50;63.60;;;;;;5413776;26;20022;-85
2024/04/08 09:25:44;;;;;;;11.35;5.10;;;21.20;64.60;;;;;;5378078;26;20297;-84
2024/04/08 09:28:11;;;;;;;13.48;5.68;;;21.00;64.40;;;;;;5410347;26;20011;-85
2024/04/08 09:30:38;;;;;;;13.88;8.30;;;20.70;65.20;;;;;;5383949;26;20003;-84
2024/04/08 09:33:07;;;;;;;16.45;6.13;;;20.60;65.60;;;;;;5415186;26;20040;-85
2024/04/08 09:35:43;;;;;;;8.85;4.72;;;20.30;66.30;;;;;;5390568;26;20188;-85
2024/04/08 09:38:10;;;;;;;14.43;5.47;;;19.80;67.50;;;;;;5419856;26;20011;-83
2024/04/08 09:40:40;;;;;;;11.98;5.07;;;19.60;68.50;;;;;;5384553;26;20011;-84
2024/04/08 09:43:07;;;;;;;12.60;4.38;;;19.40;69.10;;;;;;5414466;26;20008;-84
2024/04/08 09:45:36;;;;;;;9.57;4.28;;;19.40;69.50;;;;;;5384508;26;20054;-86
2024/04/08 09:48:02;;;;;;;8.63;3.70;;;19.10;70.10;;;;;;5414708;26;20096;-85
2024/04/08 09:50:28;;;;;;;12.97;4.27;;;19.00;70.70;;;;;;5383439;26;20023;-84
2024/04/08 09:52:55;;;;;;;8.18;4.47;;;19.20;70.80;;;;;;5407405;26;20336;-83
2024/04/08 09:55:27;;;;;;;17.37;5.93;;;19.40;70.60;;;;;;5412454;26;20004;-82
2024/04/08 09:57:56;;;;;;;8.93;3.42;;;19.50;70.10;;;;;;5384804;26;20000;-86
2024/04/08 10:00:23;;;;;;;10.00;4.22;;;19.40;70.00;;;;;;5382873;26;19999;-85
2024/04/08 10:02:53;;;;;;;14.30;5.78;;;19.10;70.90;;;;;;5414747;26;20073;-84
2024/04/08 10:05:20;;;;;;;14.15;5.10;;;18.80;72.20;;;;;;5414203;26;20076;-84
2024/04/08 10:07:46;;;;;;;10.18;4.68;;;19.00;72.20;;;;;;5417126;26;20373;-83
2024/04/08 10:10:14;;;;;;;15.73;5.80;;;18.90;72.30;;;;;;5410859;26;19995;-84
2024/04/08 10:12:42;;;;;;;15.35;5.05;;;19.00;72.30;;;;;;5416282;26;20004;-84
2024/04/08 10:15:11;;;;;;;15.82;4.97;;;19.10;72.10;;;;;;5416076;26;20068;-85
2024/04/08 10:17:44;;;;;;;12.77;4.57;;;19.10;72.30;;;;;;5414702;26;20041;-86
2024/04/08 10:20:18;;;;;;;16.13;6.50;;;19.10;72.20;;;;;;5412029;26;20003;-87
2024/04/08 10:22:45;;;;;;;10.18;4.47;;;19.30;71.80;;;;;;5423367;26;19999;-91
2024/04/08 10:25:37;;;;;;;11.47;4.70;;;19.40;71.50;;;;;;5385641;26;20075;-84
2024/04/08 10:28:07;;;;;;;9.57;4.80;;;19.30;72.00;;;;;;5381277;26;20227;-90
2024/04/08 10:30:34;;;;;;;12.48;4.20;;;19.30;72.10;;;;;;5390165;26;20805;-85
2024/04/08 10:33:01;;;;;;;15.07;4.43;;;19.20;72.20;;;;;;5418964;26;20004;-89
2024/04/08 10:35:26;;;;;;;12.73;4.70;;;19.30;72.40;;;;;;5373420;26;20032;-88
2024/04/08 10:37:52;;;;;;;14.10;4.82;;;19.20;72.20;;;;;;5405682;26;20003;-85
2024/04/08 10:40:22;;;;;;;15.63;5.63;;;19.00;73.00;;;;;;5385875;26;20369;-83
2024/04/08 10:42:51;;;;;;;12.80;4.70;;;19.10;73.30;;;;;;5407278;26;20289;-84
2024/04/08 10:45:17;;;;;;;9.68;3.80;;;19.20;73.00;;;;;;5417538;26;20014;-81
2024/04/08 10:47:43;;;;;;;15.80;7.60;;;19.20;73.00;;;;;;5417747;26;20010;-83
2024/04/08 10:50:10;;;;;;;8.45;4.38;;;19.20;73.30;;;;;;5417506;26;20270;-82
2024/04/08 10:52:39;;;;;;;7.00;3.83;;;19.20;73.00;;;;;;5430419;26;20067;-83
2024/04/08 10:55:07;;;;;;;10.13;4.55;;;19.20;73.00;;;;;;5416909;26;20119;-83
2024/04/08 10:57:33;;;;;;;11.10;5.05;;;19.20;73.30;;;;;;5382887;26;20000;-81
2024/04/08 11:00:00;;;;;;;11.93;3.97;;;19.20;73.40;;;;;;5410902;26;19999;-85
2024/04/08 11:02:26;;;;;;;10.77;3.90;;;19.40;72.90;;;;;;5381873;26;20014;-84
2024/04/08 11:04:54;;;;;;;8.20;3.78;;;19.20;73.20;;;;;;5422403;26;19999;-83
2024/04/08 11:07:20;;;;;;;8.45;4.00;;;19.00;73.70;;;;;;5426550;26;20046;-86
2024/04/08 11:09:46;;;;;;;12.35;4.53;;;18.80;74.30;;;;;;5428565;26;20387;-85
2024/04/08 11:12:15;;;;;;;11.32;5.15;;;18.60;74.90;;;;;;5393512;26;20004;-85
2024/04/08 11:14:45;;;;;;;8.45;4.05;;;18.50;75.50;;;;;;5414695;26;20401;-85
2024/04/08 11:17:14;;;;;;;5.88;3.67;;;18.50;75.70;;;;;;5417272;26;20000;-87
2024/04/08 11:19:43;;;;;;;6.78;4.10;;;18.50;75.80;;;;;;5417292;26;20011;-85
2024/04/08 11:22:10;;;;;;;10.30;4.78;;;18.40;76.30;;;;;;5415830;26;20004;-84
2024/04/08 11:24:42;;;;;;;9.53;4.27;;;18.50;76.10;;;;;;5363843;26;20499;-86
2024/04/08 11:27:09;;;;;;;10.20;4.70;;;18.80;75.80;;;;;;5395954;26;20351;-85
2024/04/08 11:29:35;;;;;;;9.13;4.32;;;18.90;75.30;;;;;;5418133;26;20017;-84
2024/04/08 11:32:01;;;;;;;14.00;4.97;;;19.10;74.80;;;;;;5417591;26;19999;-83
2024/04/08 11:34:27;;;;;;;11.88;4.20;;;19.00;74.70;;;;;;5414771;26;20072;-86
2024/04/08 11:36:54;;;;;;;9.10;4.15;;;19.00;75.00;;;;;;5407610;26;20012;-86
2024/04/08 11:39:20;;;;;;;13.40;5.63;;;18.90;75.00;;;;;;5405250;26;20009;-83
2024/04/08 11:41:45;;;;;;;9.80;4.10;;;18.90;74.90;;;;;;5416815;26;20023;-85
2024/04/08 11:44:11;;;;;;;5.53;3.33;;;18.70;75.30;;;;;;5403276;26;20004;-84
2024/04/08 11:46:37;;;;;;;14.73;6.03;;;18.50;75.80;;;;;;5404907;26;20463;-83
2024/04/08 11:49:03;;;;;;;10.55;4.95;;;18.50;76.40;;;;;;5386982;26;20003;-83
2024/04/08 11:51:29;;;;;;;23.58;5.80;;;18.50;76.40;;;;;;5411975;26;20332;-83
2024/04/08 11:53:54;;;;;;;9.85;4.50;;;18.60;76.40;;;;;;5415560;26;20014;-83
2024/04/08 11:56:20;;;;;;;11.82;4.13;;;18.60;76.20;;;;;;5385144;26;20011;-81
2024/04/08 11:58:46;;;;;;;14.52;5.78;;;18.60;76.20;;;;;;5410931;26;20000;-82
2024/04/08 12:01:12;;;;;;;12.10;4.43;;;18.50;76.50;;;;;;5417105;26;20014;-83
2024/04/08 12:03:38;;;;;;;8.30;4.45;;;18.40;76.70;;;;;;5416734;26;20022;-85
2024/04/08 12:06:09;;;;;;;16.63;4.78;;;18.40;77.00;;;;;;5418848;26;20014;-82
2024/04/08 12:08:34;;;;;;;15.98;6.82;;;18.40;77.30;;;;;;5431422;26;20077;-83
2024/04/08 12:11:00;;;;;;;12.52;4.18;;;18.30;77.40;;;;;;5395405;26;20007;-83
2024/04/08 12:13:26;;;;;;;10.77;4.32;;;18.30;77.40;;;;;;5438859;26;20015;-84
2024/04/08 12:15:52;;;;;;;10.80;4.75;;;18.30;77.50;;;;;;5424399;26;20011;-83
2024/04/08 12:18:18;;;;;;;13.38;4.75;;;18.30;77.60;;;;;;5414813;26;20071;-85
2024/04/08 12:20:44;;;;;;;10.30;4.65;;;18.20;77.80;;;;;;5384706;26;20312;-86
2024/04/08 12:23:11;;;;;;;14.93;4.93;;;18.10;78.30;;;;;;5385101;26;20004;-82
2024/04/08 12:25:38;;;;;;;8.95;4.85;;;18.00;78.50;;;;;;5416832;26;20007;-83
2024/04/08 12:28:05;;;;;;;9.57;4.63;;;18.00;78.50;;;;;;5397302;26;20000;-82
2024/04/08 12:30:32;;;;;;;10.82;4.75;;;17.90;78.70;;;;;;5415934;26;20018;-83
2024/04/08 12:32:58;;;;;;;10.48;5.30;;;17.80;79.00;;;;;;5415520;26;20447;-83
2024/04/08 12:35:24;;;;;;;9.10;4.13;;;17.80;79.30;;;;;;5415674;26;20088;-84
2024/04/08 12:37:50;;;;;;;8.20;5.07;;;17.80;79.40;;;;;;5415899;26;20007;-86
2024/04/08 12:40:16;;;;;;;13.57;4.63;;;17.80;79.70;;;;;;5411864;26;20344;-83